createdAt,value
2019-02-22T00:00:59.717Z,34.50
2019-02-22T00:03:47.349Z,36.13
2019-02-22T00:06:35.026Z,34.73
2019-02-22T00:09:23.017Z,35.90
2019-02-22T00:12:11.035Z,30.60
2019-02-22T00:14:58.826Z,29.30
2019-02-22T00:17:46.729Z,29.33
2019-02-22T00:20:34.685Z,32.67
2019-02-22T00:23:22.701Z,30.20
2019-02-22T00:26:11.232Z,32.83
2019-02-22T00:28:59.421Z,31.70
2019-02-22T00:31:47.269Z,30.63
2019-02-22T00:34:35.276Z,34.30
2019-02-22T00:37:22.965Z,27.80
2019-02-22T00:40:10.869Z,28.47
2019-02-22T00:42:59.765Z,29.37
2019-02-22T00:45:47.605Z,30.53
2019-02-22T00:48:35.410Z,30.00
2019-02-22T00:51:23.333Z,32.27
2019-02-22T00:54:10.945Z,28.60
2019-02-22T00:56:58.974Z,27.23
2019-02-22T00:59:46.581Z,31.37
2019-02-22T01:02:34.505Z,25.60
2019-02-22T01:05:22.393Z,26.83
2019-02-22T01:08:10.449Z,27.03
2019-02-22T01:10:58.297Z,30.93
2019-02-22T01:13:46.106Z,27.40
2019-02-22T01:16:33.882Z,27.30
2019-02-22T01:19:21.698Z,27.37
2019-02-22T01:22:09.413Z,29.07
2019-02-22T01:24:57.345Z,25.70
2019-02-22T01:27:45.105Z,31.03
2019-02-22T01:30:33.159Z,29.53
2019-02-22T01:33:21.062Z,27.43
2019-02-22T01:36:09.002Z,26.10
2019-02-22T01:38:56.633Z,26.77
2019-02-22T01:41:44.482Z,23.53
2019-02-22T01:44:32.128Z,27.07
2019-02-22T01:47:20.087Z,28.60
2019-02-22T01:50:08.105Z,27.77
2019-02-22T01:52:56.171Z,28.13
2019-02-22T01:55:44.010Z,26.00
2019-02-22T01:58:31.910Z,25.37
2019-02-22T02:01:19.669Z,28.40
2019-02-22T02:04:07.329Z,26.53
2019-02-22T02:06:55.303Z,29.97
2019-02-22T02:09:43.014Z,31.37
2019-02-22T02:12:31.006Z,31.77
2019-02-22T02:15:19.028Z,28.93
2019-02-22T02:18:06.494Z,28.00
2019-02-22T02:20:54.799Z,31.73
2019-02-22T02:23:42.680Z,25.47
2019-02-22T02:26:30.596Z,28.67
2019-02-22T02:29:18.451Z,26.73
2019-02-22T02:32:06.128Z,28.47
2019-02-22T02:34:56.803Z,29.17
2019-02-22T02:37:44.638Z,28.80
2019-02-22T02:40:32.780Z,27.70
2019-02-22T02:43:20.666Z,26.83
2019-02-22T02:46:08.688Z,33.20
2019-02-22T02:48:56.770Z,28.13
2019-02-22T02:51:44.613Z,27.00
2019-02-22T02:54:32.661Z,24.27
2019-02-22T02:57:20.392Z,26.23
2019-02-22T03:00:09.200Z,26.33
2019-02-22T03:02:57.160Z,28.27
2019-02-22T03:05:58.154Z,30.63
2019-02-22T03:08:46.264Z,33.10
2019-02-22T03:11:34.490Z,24.00
2019-02-22T03:14:22.177Z,27.40
2019-02-22T03:17:09.935Z,27.00
2019-02-22T03:19:57.615Z,30.70
2019-02-22T03:22:45.669Z,29.60
2019-02-22T03:25:33.246Z,31.80
2019-02-22T03:28:20.894Z,32.30
2019-02-22T03:31:08.982Z,42.60
2019-02-22T03:33:56.690Z,35.50
2019-02-22T03:36:44.523Z,33.47
2019-02-22T03:39:32.492Z,31.07
2019-02-22T03:42:20.524Z,38.57
2019-02-22T03:45:08.886Z,36.57
2019-02-22T03:47:56.437Z,37.60
2019-02-22T03:50:44.094Z,33.93
2019-02-22T03:53:33.834Z,36.53
2019-02-22T03:56:22.174Z,33.73
2019-02-22T03:59:09.996Z,37.47
2019-02-22T04:01:57.607Z,35.77
2019-02-22T04:04:45.526Z,34.43
2019-02-22T04:07:33.188Z,36.60
2019-02-22T04:10:21.102Z,40.60
2019-02-22T04:13:08.979Z,33.90
2019-02-22T04:15:56.939Z,34.97
2019-02-22T04:18:44.993Z,34.23
2019-02-22T04:21:32.573Z,35.03
2019-02-22T04:24:20.429Z,38.27
2019-02-22T04:27:08.289Z,36.30
2019-02-22T04:29:56.162Z,38.90
2019-02-22T04:32:44.108Z,33.80
2019-02-22T04:35:31.685Z,37.47
2019-02-22T04:38:19.534Z,38.37
2019-02-22T04:41:07.182Z,36.33
2019-02-22T04:43:55.286Z,37.63
2019-02-22T04:46:42.999Z,34.97
2019-02-22T04:49:31.020Z,36.67
2019-02-22T04:52:18.654Z,36.10
2019-02-22T04:55:06.354Z,38.43
2019-02-22T04:57:54.186Z,40.43
2019-02-22T05:00:42.332Z,36.80
2019-02-22T05:03:30.150Z,36.63
2019-02-22T05:06:18.236Z,41.33
2019-02-22T05:09:06.148Z,39.87
2019-02-22T05:11:54.203Z,40.27
2019-02-22T05:14:42.044Z,45.50
2019-02-22T05:17:29.725Z,42.33
2019-02-22T05:20:17.693Z,47.70
2019-02-22T05:23:07.548Z,43.60
2019-02-22T05:25:55.692Z,42.60
2019-02-22T05:28:43.526Z,41.93
2019-02-22T05:31:31.333Z,49.83
2019-02-22T05:34:19.337Z,48.83
2019-02-22T05:37:07.161Z,52.53
2019-02-22T05:39:54.781Z,54.00
2019-02-22T05:42:42.772Z,55.50
2019-02-22T05:45:30.923Z,54.10
2019-02-22T05:48:18.784Z,50.70
2019-02-22T05:51:06.518Z,53.57
2019-02-22T05:53:54.297Z,56.10
2019-02-22T05:56:42.356Z,54.60
2019-02-22T05:59:30.273Z,66.07
2019-02-22T06:02:18.112Z,60.53
2019-02-22T06:05:06.525Z,63.17
2019-02-22T06:07:54.395Z,61.50
2019-02-22T06:10:42.067Z,65.20
2019-02-22T06:13:29.932Z,61.10
2019-02-22T06:16:17.942Z,63.33
2019-02-22T06:19:06.037Z,62.37
2019-02-22T06:21:53.879Z,60.03
2019-02-22T06:24:41.597Z,58.70
2019-02-22T06:27:29.534Z,59.17
2019-02-22T06:30:17.426Z,56.90
2019-02-22T06:33:05.313Z,61.27
2019-02-22T06:35:52.889Z,61.43
2019-02-22T06:38:40.833Z,60.17
2019-02-22T06:41:28.944Z,61.07
2019-02-22T06:44:16.634Z,64.30
2019-02-22T06:47:04.244Z,62.90
2019-02-22T06:49:52.237Z,57.97
2019-02-22T06:52:40.312Z,55.40
2019-02-22T06:55:28.201Z,60.93
2019-02-22T06:58:15.886Z,58.73
2019-02-22T07:01:03.856Z,60.27
2019-02-22T07:03:52.037Z,59.97
2019-02-22T07:06:39.919Z,61.13
2019-02-22T07:09:27.911Z,57.83
2019-02-22T07:12:17.482Z,57.27
2019-02-22T07:15:07.410Z,61.90
2019-02-22T07:17:55.156Z,55.50
2019-02-22T07:20:43.048Z,58.43
2019-02-22T07:23:30.705Z,59.23
2019-02-22T07:26:18.755Z,50.73
2019-02-22T07:29:06.808Z,56.07
2019-02-22T07:32:05.260Z,56.10
2019-02-22T07:34:44.716Z,53.93
2019-02-22T07:37:32.622Z,55.90
2019-02-22T07:40:20.673Z,55.57
2019-02-22T07:43:08.501Z,57.03
2019-02-22T07:45:57.809Z,52.17
2019-02-22T07:48:45.625Z,54.93
2019-02-22T07:51:33.497Z,52.27
2019-02-22T07:54:21.322Z,50.20
2019-02-22T07:57:09.355Z,53.87
2019-02-22T07:59:57.265Z,51.80
2019-02-22T08:02:45.264Z,54.00
2019-02-22T08:05:33.094Z,54.30
2019-02-22T08:08:20.969Z,55.43
2019-02-22T08:11:08.964Z,55.30
2019-02-22T08:13:56.992Z,52.60
2019-02-22T08:16:44.697Z,55.33
2019-02-22T08:19:32.384Z,48.67
2019-02-22T08:22:20.821Z,48.93
2019-02-22T08:25:08.921Z,52.63
2019-02-22T08:27:56.502Z,50.40
2019-02-22T08:30:44.145Z,50.30
2019-02-22T08:33:31.924Z,48.60
2019-02-22T08:36:19.784Z,47.23
2019-02-22T08:39:07.474Z,50.60
2019-02-22T08:41:55.216Z,48.37
2019-02-22T08:44:43.130Z,52.87
2019-02-22T08:47:31.098Z,47.13
2019-02-22T08:50:18.717Z,47.87
2019-02-22T08:53:06.489Z,48.83
2019-02-22T08:55:54.397Z,48.80
2019-02-22T08:58:42.245Z,46.73
2019-02-22T09:01:30.039Z,46.87
2019-02-22T09:04:17.942Z,44.90
2019-02-22T09:07:05.806Z,43.93
2019-02-22T09:09:53.568Z,44.63
2019-02-22T09:12:41.525Z,43.40
2019-02-22T09:15:29.262Z,45.47
2019-02-22T09:18:17.263Z,46.97
2019-02-22T09:21:05.265Z,43.17
2019-02-22T09:23:53.181Z,45.27
2019-02-22T09:26:40.867Z,48.10
2019-02-22T09:29:28.797Z,48.13
2019-02-22T09:32:16.643Z,47.63
2019-02-22T09:35:06.008Z,43.23
2019-02-22T09:37:53.924Z,47.67
2019-02-22T09:40:41.906Z,46.90
2019-02-22T09:43:30.100Z,46.13
2019-02-22T09:46:17.761Z,44.67
2019-02-22T09:49:05.442Z,44.13
2019-02-22T09:51:53.083Z,40.80
2019-02-22T09:54:41.173Z,43.80
2019-02-22T09:57:28.784Z,44.23
2019-02-22T10:00:16.665Z,46.13
2019-02-22T10:03:04.573Z,45.50
2019-02-22T10:05:52.675Z,46.90
2019-02-22T10:08:40.472Z,43.60
2019-02-22T10:11:28.113Z,41.37
2019-02-22T10:14:15.833Z,39.23
2019-02-22T10:17:03.885Z,37.37
2019-02-22T10:19:51.793Z,31.20
2019-02-22T10:22:39.410Z,28.27
2019-02-22T10:25:27.592Z,25.20
2019-02-22T10:28:18.129Z,20.40
2019-02-22T10:31:05.053Z,18.93
2019-02-22T10:33:52.955Z,19.17
2019-02-22T10:36:45.051Z,20.30
2019-02-22T10:39:30.930Z,21.50
2019-02-22T10:42:18.950Z,18.63
2019-02-22T10:45:09.101Z,14.63
2019-02-22T10:47:56.721Z,14.70
2019-02-22T10:50:44.602Z,16.13
2019-02-22T10:53:32.274Z,16.90
2019-02-22T10:56:20.221Z,15.17
2019-02-22T10:59:07.914Z,17.43
2019-02-22T11:01:55.884Z,13.43
2019-02-22T11:04:43.884Z,16.20
2019-02-22T11:07:31.405Z,13.87
2019-02-22T11:10:19.114Z,13.67
2019-02-22T11:13:06.977Z,11.30
2019-02-22T11:15:54.857Z,10.50
2019-02-22T11:18:42.484Z,10.73
2019-02-22T11:21:30.045Z,12.13
2019-02-22T11:24:19.914Z,12.40
2019-02-22T11:27:07.297Z,10.97
2019-02-22T11:29:54.867Z,9.13
2019-02-22T11:32:42.850Z,10.47
2019-02-22T11:35:30.681Z,11.70
2019-02-22T11:38:18.390Z,9.40
2019-02-22T11:41:05.982Z,10.07
2019-02-22T11:43:53.983Z,12.97
2019-02-22T11:46:41.844Z,15.30
2019-02-22T11:49:29.885Z,14.53
2019-02-22T11:52:17.764Z,13.40
2019-02-22T11:55:09.685Z,11.57
2019-02-22T11:57:57.328Z,12.67
2019-02-22T12:00:45.420Z,9.57
2019-02-22T12:03:33.057Z,11.30
2019-02-22T12:06:21.085Z,10.13
2019-02-22T12:09:08.980Z,8.37
2019-02-22T12:11:56.847Z,9.70
2019-02-22T12:14:51.605Z,10.70
2019-02-22T12:17:33.760Z,9.80
2019-02-22T12:20:21.389Z,7.90
2019-02-22T12:23:09.397Z,12.97
2019-02-22T12:25:56.975Z,9.37
2019-02-22T12:28:44.901Z,9.40
2019-02-22T12:31:32.662Z,8.70
2019-02-22T12:34:20.849Z,7.27
2019-02-22T12:37:08.634Z,9.73
2019-02-22T12:39:56.377Z,8.23
2019-02-22T12:42:44.148Z,7.60
2019-02-22T12:45:31.945Z,5.87
2019-02-22T12:48:19.511Z,6.60
2019-02-22T12:51:07.348Z,6.80
2019-02-22T12:53:55.236Z,6.17
2019-02-22T12:56:56.546Z,6.53
2019-02-22T12:59:32.600Z,6.00
2019-02-22T13:02:20.501Z,7.57
2019-02-22T13:05:10.604Z,5.63
2019-02-22T13:07:58.170Z,5.73
2019-02-22T13:10:46.067Z,5.53
2019-02-22T13:13:34.064Z,5.00
2019-02-22T13:16:21.952Z,6.37
2019-02-22T13:19:09.877Z,5.37
2019-02-22T13:21:57.916Z,6.20
2019-02-22T13:24:45.642Z,6.20
2019-02-22T13:27:33.515Z,7.47
2019-02-22T13:30:21.397Z,6.53
2019-02-22T13:33:09.445Z,7.57
2019-02-22T13:35:57.100Z,8.03
2019-02-22T13:38:45.025Z,11.97
2019-02-22T13:41:32.793Z,8.77
2019-02-22T13:44:20.783Z,8.33
2019-02-22T13:47:08.633Z,7.77
2019-02-22T13:49:56.542Z,8.60
2019-02-22T13:52:44.442Z,8.30
2019-02-22T13:55:32.446Z,9.13
2019-02-22T13:58:20.167Z,9.97
2019-02-22T14:01:08.023Z,8.70
2019-02-22T14:03:55.989Z,7.53
2019-02-22T14:06:43.818Z,7.63
2019-02-22T14:09:31.699Z,7.87
2019-02-22T14:12:19.497Z,7.67
2019-02-22T14:15:08.239Z,7.80
2019-02-22T14:17:56.203Z,7.33
2019-02-22T14:20:44.119Z,9.27
2019-02-22T14:23:32.161Z,7.60
2019-02-22T14:26:19.832Z,7.20
2019-02-22T14:29:07.794Z,8.57
2019-02-22T14:31:55.467Z,8.97
2019-02-22T14:34:43.160Z,8.10
2019-02-22T14:37:30.893Z,9.00
2019-02-22T14:40:18.506Z,10.07
2019-02-22T14:43:16.120Z,6.83
2019-02-22T14:45:55.848Z,8.87
2019-02-22T14:48:43.779Z,7.93
2019-02-22T14:51:31.556Z,7.93
2019-02-22T14:54:19.128Z,8.37
2019-02-22T14:57:07.137Z,10.33
2019-02-22T14:59:55.019Z,12.30
2019-02-22T15:02:42.536Z,6.53
2019-02-22T15:05:31.038Z,6.40
2019-02-22T15:08:18.973Z,6.53
2019-02-22T15:11:07.077Z,5.97
2019-02-22T15:13:55.126Z,6.20
2019-02-22T15:16:56.570Z,5.17
2019-02-22T15:19:44.946Z,7.10
2019-02-22T15:22:32.915Z,6.20
2019-02-22T15:25:20.868Z,8.20
2019-02-22T15:28:08.694Z,5.00
2019-02-22T15:30:56.591Z,6.90
2019-02-22T15:33:44.513Z,4.87
2019-02-22T15:36:32.137Z,6.40
2019-02-22T15:39:19.849Z,6.10
2019-02-22T15:42:07.594Z,4.90
2019-02-22T15:44:55.611Z,7.00
2019-02-22T15:47:44.693Z,7.27
2019-02-22T15:50:32.374Z,6.23
2019-02-22T15:53:20.309Z,6.03
2019-02-22T15:56:08.391Z,6.47
2019-02-22T15:58:56.241Z,5.73
2019-02-22T16:01:54.527Z,6.50
2019-02-22T16:04:42.110Z,5.33
2019-02-22T16:07:29.764Z,6.17
2019-02-22T16:10:17.523Z,8.03
2019-02-22T16:13:05.492Z,7.63
2019-02-22T16:15:53.157Z,4.27
2019-02-22T16:18:40.801Z,5.77
2019-02-22T16:21:28.709Z,5.07
2019-02-22T16:24:16.860Z,6.47
2019-02-22T16:27:04.918Z,7.60
2019-02-22T16:30:12.109Z,6.30
2019-02-22T16:33:17.628Z,6.33
2019-02-22T16:36:04.828Z,5.57
2019-02-22T16:38:52.289Z,6.40
2019-02-22T16:41:40.028Z,6.77
2019-02-22T16:44:27.487Z,6.13
2019-02-22T16:47:15.260Z,6.53
2019-02-22T16:50:02.980Z,6.60
2019-02-22T16:52:50.449Z,5.40
2019-02-22T16:55:38.054Z,5.70
2019-02-22T16:58:25.764Z,4.60
2019-02-22T17:01:13.312Z,6.40
2019-02-22T17:04:00.809Z,5.77
2019-02-22T17:06:48.525Z,5.27
2019-02-22T17:09:36.237Z,5.03
2019-02-22T17:12:23.833Z,6.07
2019-02-22T17:15:13.020Z,7.57
2019-02-22T17:18:01.253Z,8.53
2019-02-22T17:20:48.969Z,6.67
2019-02-22T17:23:36.705Z,9.03
2019-02-22T17:26:24.261Z,5.93
2019-02-22T17:29:11.602Z,8.53
2019-02-22T17:31:59.173Z,5.60
2019-02-22T17:34:46.662Z,6.97
2019-02-22T17:37:34.332Z,7.07
2019-02-22T17:40:23.912Z,4.90
2019-02-22T17:43:11.536Z,4.60
2019-02-22T17:45:58.945Z,5.63
2019-02-22T17:48:46.569Z,7.27
2019-02-22T17:51:34.008Z,6.00
2019-02-22T17:54:21.705Z,6.27
2019-02-22T17:57:09.065Z,7.40
2019-02-22T17:59:56.660Z,9.07
2019-02-22T18:02:44.041Z,8.20
2019-02-22T18:05:31.805Z,10.40
2019-02-22T18:08:19.180Z,13.93
2019-02-22T18:11:06.522Z,12.67
2019-02-22T18:13:54.268Z,15.07
2019-02-22T18:16:41.730Z,14.47
2019-02-22T18:19:29.077Z,16.73
2019-02-22T18:22:25.408Z,16.63
2019-02-22T18:25:08.234Z,21.13
2019-02-22T18:27:55.803Z,19.17
2019-02-22T18:30:43.477Z,25.00
2019-02-22T18:33:30.860Z,25.03
2019-02-22T18:36:18.492Z,22.80
2019-02-22T18:39:06.622Z,26.33
2019-02-22T18:41:54.033Z,25.93
2019-02-22T18:44:41.497Z,23.20
2019-02-22T18:47:29.078Z,23.10
2019-02-22T18:50:16.686Z,20.80
2019-02-22T18:53:04.302Z,18.27
2019-02-22T18:55:52.016Z,22.97
2019-02-22T18:58:39.632Z,20.90
2019-02-22T19:01:27.265Z,18.27
2019-02-22T19:04:14.918Z,19.13
2019-02-22T19:07:02.519Z,22.27
2019-02-22T19:09:50.177Z,33.63
2019-02-22T19:12:39.196Z,30.23
2019-02-22T19:15:26.757Z,25.23
2019-02-22T19:18:14.516Z,26.43
2019-02-22T19:21:01.853Z,20.87
2019-02-22T19:23:49.277Z,18.97
2019-02-22T19:26:36.918Z,17.67
2019-02-22T19:29:24.732Z,19.70
2019-02-22T19:32:12.370Z,31.33
2019-02-22T19:34:59.801Z,31.53
2019-02-22T19:37:47.537Z,31.33
2019-02-22T19:40:35.083Z,33.40
2019-02-22T19:43:22.753Z,33.07
2019-02-22T19:46:10.302Z,34.63
2019-02-22T19:48:58.053Z,33.70
2019-02-22T19:51:45.521Z,29.30
2019-02-22T19:54:33.137Z,26.53
2019-02-22T19:57:20.811Z,21.70
2019-02-22T20:00:14.636Z,21.93
2019-02-22T20:03:02.451Z,17.80
2019-02-22T20:05:49.952Z,19.23
2019-02-22T20:08:37.650Z,19.13
2019-02-22T20:11:25.296Z,18.57
2019-02-22T20:14:13.021Z,18.73
2019-02-22T20:17:00.577Z,20.80
2019-02-22T20:19:48.141Z,20.30
2019-02-22T20:22:35.661Z,19.77
2019-02-22T20:25:23.509Z,22.80
2019-02-22T20:28:10.964Z,20.77
2019-02-22T20:30:58.326Z,21.60
2019-02-22T20:33:46.064Z,22.27
2019-02-22T20:36:33.724Z,25.03
2019-02-22T20:39:21.333Z,23.23
2019-02-22T20:42:08.780Z,20.27
2019-02-22T20:44:56.345Z,25.07
2019-02-22T20:47:43.981Z,26.00
2019-02-22T20:50:31.345Z,23.90
2019-02-22T20:53:18.660Z,21.13
2019-02-22T20:56:06.495Z,27.83
2019-02-22T20:58:53.945Z,20.50
2019-02-22T21:01:41.340Z,19.80
2019-02-22T21:04:29.065Z,18.03
2019-02-22T21:07:16.498Z,20.67
2019-02-22T21:10:05.941Z,21.97
2019-02-22T21:12:53.312Z,34.40
2019-02-22T21:15:40.808Z,26.07
2019-02-22T21:18:28.205Z,28.33
2019-02-22T21:21:15.751Z,30.10
2019-02-22T21:24:03.131Z,26.53
2019-02-22T21:26:50.835Z,25.73
2019-02-22T21:29:39.221Z,26.13
2019-02-22T21:32:27.069Z,25.37
2019-02-22T21:35:14.772Z,23.90
2019-02-22T21:38:02.446Z,23.67
2019-02-22T21:40:49.928Z,20.63
2019-02-22T21:43:37.558Z,18.43
2019-02-22T21:46:24.976Z,23.03
2019-02-22T21:49:12.693Z,21.87
2019-02-22T21:52:00.240Z,21.03
2019-02-22T21:54:47.667Z,19.37
2019-02-22T21:57:35.124Z,22.07
2019-02-22T22:00:27.632Z,42.50
2019-02-22T22:03:15.245Z,46.33
2019-02-22T22:06:02.668Z,30.63
2019-02-22T22:08:50.375Z,28.80
2019-02-22T22:11:38.120Z,25.07
2019-02-22T22:14:25.502Z,23.87
2019-02-22T22:17:12.853Z,25.33
2019-02-22T22:20:00.343Z,21.47
2019-02-22T22:22:47.945Z,26.30
2019-02-22T22:25:35.564Z,22.00
2019-02-22T22:28:24.511Z,23.40
2019-02-22T22:31:11.867Z,23.67
2019-02-22T22:33:59.440Z,23.37
2019-02-22T22:36:46.891Z,24.33
2019-02-22T22:39:34.692Z,19.60
2019-02-22T22:42:22.420Z,24.97
2019-02-22T22:45:11.585Z,24.13
2019-02-22T22:47:58.940Z,25.17
2019-02-22T22:50:46.653Z,27.60
2019-02-22T22:53:34.433Z,23.30
2019-02-22T22:56:22.032Z,24.13
2019-02-22T22:59:09.689Z,21.23
2019-02-22T23:01:57.085Z,25.97
2019-02-22T23:04:44.628Z,25.30
2019-02-22T23:07:32.165Z,23.33
2019-02-22T23:10:19.937Z,25.57
2019-02-22T23:13:07.737Z,24.87
2019-02-22T23:15:55.416Z,24.53
2019-02-22T23:18:42.724Z,22.10
2019-02-22T23:21:30.356Z,26.33
2019-02-22T23:24:17.873Z,21.63
2019-02-22T23:27:05.315Z,24.37
2019-02-22T23:29:52.933Z,22.50
2019-02-22T23:32:40.308Z,23.00
2019-02-22T23:35:28.007Z,24.40
2019-02-22T23:38:15.503Z,24.13
2019-02-22T23:41:02.861Z,23.73
2019-02-22T23:43:50.551Z,21.40
2019-02-22T23:46:37.897Z,23.97
2019-02-22T23:49:25.349Z,22.93
2019-02-22T23:52:13.060Z,41.93
2019-02-22T23:55:00.521Z,26.03
2019-02-22T23:57:47.872Z,26.57
